sensor_id;sensor_type;location;lat;lon;timestamp;pressure;altitude;pressure_sealevel;temperature;humidity
30873;BME280;17579;42.690;2.586;2024-03-07T06:48:15;97030.03;;;11.01;57.01
30873;BME280;17579;42.690;2.586;2024-03-07T06:50:40;97033.06;;;11.06;56.32
30873;BME280;17579;42.690;2.586;2024-03-07T06:53:06;97016.13;;;10.99;56.24
30873;BME280;17579;42.690;2.586;2024-03-07T06:55:35;97022.31;;;10.90;56.38
30873;BME280;17579;42.690;2.586;2024-03-07T06:58:04;97026.56;;;10.83;56.08
30873;BME280;17579;42.690;2.586;2024-03-07T07:00:36;97032.78;;;10.73;56.08
30873;BME280;17579;42.690;2.586;2024-03-07T07:03:23;97033.91;;;10.71;56.18
30873;BME280;17579;42.690;2.586;2024-03-07T07:05:50;97029.88;;;10.67;56.73
30873;BME280;17579;42.690;2.586;2024-03-07T07:08:19;97028.38;;;10.64;56.72
30873;BME280;17579;42.690;2.586;2024-03-07T07:10:45;97028.97;;;10.58;56.39
30873;BME280;17579;42.690;2.586;2024-03-07T07:13:20;97027.25;;;10.49;56.40
30873;BME280;17579;42.690;2.586;2024-03-07T07:15:49;97020.66;;;10.53;56.82
30873;BME280;17579;42.690;2.586;2024-03-07T07:18:37;97010.03;;;10.45;56.58
30873;BME280;17579;42.690;2.586;2024-03-07T07:21:06;97017.72;;;10.38;56.87
30873;BME280;17579;42.690;2.586;2024-03-07T07:23:36;97020.22;;;10.30;56.95
30873;BME280;17579;42.690;2.586;2024-03-07T07:26:21;97027.69;;;10.16;56.71
30873;BME280;17579;42.690;2.586;2024-03-07T07:28:47;97020.00;;;10.23;57.43
30873;BME280;17579;42.690;2.586;2024-03-07T07:31:33;97018.88;;;10.26;57.12
30873;BME280;17579;42.690;2.586;2024-03-07T07:34:01;97017.28;;;10.33;57.24
30873;BME280;17579;42.690;2.586;2024-03-07T07:36:29;97018.69;;;10.37;57.21
30873;BME280;17579;42.690;2.586;2024-03-07T07:39:07;97024.97;;;10.36;57.45
30873;BME280;17579;42.690;2.586;2024-03-07T07:45:41;97006.66;;;9.97;56.80
30873;BME280;17579;42.690;2.586;2024-03-07T08:33:05;96982.44;;;10.01;58.49
30873;BME280;17579;42.690;2.586;2024-03-07T08:35:47;96983.94;;;10.04;58.62
30873;BME280;17579;42.690;2.586;2024-03-07T08:42:00;96974.84;;;10.16;59.32
30873;BME280;17579;42.690;2.586;2024-03-07T08:44:29;96972.44;;;10.23;59.28
30873;BME280;17579;42.690;2.586;2024-03-07T08:47:00;96979.66;;;10.21;58.92
30873;BME280;17579;42.690;2.586;2024-03-07T08:49:43;96971.88;;;10.19;59.01
30873;BME280;17579;42.690;2.586;2024-03-07T08:52:34;96974.22;;;10.04;58.92
30873;BME280;17579;42.690;2.586;2024-03-07T08:55:05;96971.28;;;10.08;59.11
30873;BME280;17579;42.690;2.586;2024-03-07T08:57:36;96978.38;;;10.07;59.48
30873;BME280;17579;42.690;2.586;2024-03-07T09:00:13;96978.66;;;10.04;59.27
30873;BME280;17579;42.690;2.586;2024-03-07T09:03:01;96982.59;;;10.00;59.24
30873;BME280;17579;42.690;2.586;2024-03-07T09:05:32;96987.03;;;9.99;59.41
30873;BME280;17579;42.690;2.586;2024-03-07T09:08:04;96974.78;;;9.98;59.39
30873;BME280;17579;42.690;2.586;2024-03-07T09:10:34;96967.28;;;10.03;59.37
30873;BME280;17579;42.690;2.586;2024-03-07T09:12:59;96965.28;;;10.05;59.43
30873;BME280;17579;42.690;2.586;2024-03-07T09:15:28;96969.59;;;10.06;59.17
30873;BME280;17579;42.690;2.586;2024-03-07T09:17:56;96969.00;;;10.13;59.21
30873;BME280;17579;42.690;2.586;2024-03-07T09:20:25;96961.94;;;10.13;59.11
30873;BME280;17579;42.690;2.586;2024-03-07T09:22:53;96958.44;;;10.13;59.40
30873;BME280;17579;42.690;2.586;2024-03-07T09:25:21;96957.84;;;10.19;59.37
30873;BME280;17579;42.690;2.586;2024-03-07T09:27:53;96955.38;;;10.17;59.73
30873;BME280;17579;42.690;2.586;2024-03-07T09:30:23;96951.06;;;10.16;60.13
30873;BME280;17579;42.690;2.586;2024-03-07T09:32:54;96954.50;;;10.17;60.50
30873;BME280;17579;42.690;2.586;2024-03-07T09:35:22;96954.00;;;10.13;60.77
30873;BME280;17579;42.690;2.586;2024-03-07T09:38:00;96949.03;;;10.10;60.46
30873;BME280;17579;42.690;2.586;2024-03-07T09:40:31;96958.97;;;10.16;61.05
30873;BME280;17579;42.690;2.586;2024-03-07T09:43:07;96959.50;;;10.20;60.69
30873;BME280;17579;42.690;2.586;2024-03-07T09:45:56;96949.06;;;10.18;60.85
30873;BME280;17579;42.690;2.586;2024-03-07T09:48:27;96946.75;;;10.15;61.41
30873;BME280;17579;42.690;2.586;2024-03-07T09:51:06;96952.25;;;10.22;61.41
30873;BME280;17579;42.690;2.586;2024-03-07T09:53:46;96951.47;;;10.39;61.44
30873;BME280;17579;42.690;2.586;2024-03-07T09:56:22;96938.41;;;10.56;61.19
30873;BME280;17579;42.690;2.586;2024-03-07T10:16:37;96920.31;;;10.51;60.06
30873;BME280;17579;42.690;2.586;2024-03-07T10:19:16;96923.50;;;10.55;60.41
30873;BME280;17579;42.690;2.586;2024-03-07T10:22:19;96921.84;;;10.54;60.01
30873;BME280;17579;42.690;2.586;2024-03-07T10:25:06;96920.09;;;10.63;59.82
30873;BME280;17579;42.690;2.586;2024-03-07T10:38:43;96897.16;;;10.71;60.09
30873;BME280;17579;42.690;2.586;2024-03-07T10:41:33;96905.97;;;10.72;60.28
30873;BME280;17579;42.690;2.586;2024-03-07T10:57:46;96893.44;;;10.56;60.19
30873;BME280;17579;42.690;2.586;2024-03-07T11:00:39;96889.03;;;10.65;60.10
30873;BME280;17579;42.690;2.586;2024-03-07T11:03:21;96882.97;;;10.72;60.09
30873;BME280;17579;42.690;2.586;2024-03-07T11:06:09;96881.16;;;10.73;60.13
30873;BME280;17579;42.690;2.586;2024-03-07T11:09:16;96863.50;;;10.82;60.06
30873;BME280;17579;42.690;2.586;2024-03-07T11:15:49;96870.38;;;10.92;60.09
30873;BME280;17579;42.690;2.586;2024-03-07T11:18:18;96857.03;;;11.02;59.96
30873;BME280;17579;42.690;2.586;2024-03-07T11:20:50;96861.19;;;11.05;59.69
30873;BME280;17579;42.690;2.586;2024-03-07T11:23:44;96858.22;;;11.08;59.81
30873;BME280;17579;42.690;2.586;2024-03-07T11:26:15;96862.53;;;11.17;59.61
30873;BME280;17579;42.690;2.586;2024-03-07T11:28:42;96867.03;;;11.17;59.50
30873;BME280;17579;42.690;2.586;2024-03-07T11:34:15;96852.47;;;11.21;59.49
30873;BME280;17579;42.690;2.586;2024-03-07T11:36:45;96848.69;;;11.32;59.64
30873;BME280;17579;42.690;2.586;2024-03-07T11:39:41;96848.16;;;11.20;58.96
30873;BME280;17579;42.690;2.586;2024-03-07T11:42:22;96839.84;;;11.15;59.17
30873;BME280;17579;42.690;2.586;2024-03-07T11:45:05;96834.03;;;11.03;59.53
30873;BME280;17579;42.690;2.586;2024-03-07T11:47:39;96838.28;;;10.96;59.36
30873;BME280;17579;42.690;2.586;2024-03-07T11:50:38;96832.19;;;10.95;59.50
30873;BME280;17579;42.690;2.586;2024-03-07T11:53:05;96822.25;;;10.97;59.49
30873;BME280;17579;42.690;2.586;2024-03-07T11:55:35;96816.47;;;11.02;59.70
30873;BME280;17579;42.690;2.586;2024-03-07T11:58:18;96813.38;;;11.06;59.67
30873;BME280;17579;42.690;2.586;2024-03-07T12:00:53;96805.13;;;11.09;59.51
30873;BME280;17579;42.690;2.586;2024-03-07T12:03:44;96800.97;;;11.07;59.55
30873;BME280;17579;42.690;2.586;2024-03-07T12:06:18;96806.00;;;11.26;59.35
30873;BME280;17579;42.690;2.586;2024-03-07T12:09:18;96790.47;;;11.32;59.58
30873;BME280;17579;42.690;2.586;2024-03-07T12:11:55;96783.53;;;11.39;59.32
30873;BME280;17579;42.690;2.586;2024-03-07T12:14:30;96778.41;;;11.46;59.10
30873;BME280;17579;42.690;2.586;2024-03-07T12:17:02;96768.31;;;11.49;59.17
30873;BME280;17579;42.690;2.586;2024-03-07T12:19:32;96766.03;;;11.54;59.22
30873;BME280;17579;42.690;2.586;2024-03-07T12:22:11;96758.44;;;11.59;59.24
30873;BME280;17579;42.690;2.586;2024-03-07T12:24:48;96750.47;;;11.68;58.89
30873;BME280;17579;42.690;2.586;2024-03-07T12:27:15;96749.47;;;11.69;59.40
30873;BME280;17579;42.690;2.586;2024-03-07T12:29:48;96736.41;;;11.75;59.27
30873;BME280;17579;42.690;2.586;2024-03-07T12:32:20;96733.25;;;11.80;59.40
30873;BME280;17579;42.690;2.586;2024-03-07T12:37:50;96713.56;;;12.07;59.04
30873;BME280;17579;42.690;2.586;2024-03-07T12:40:22;96701.13;;;12.08;58.79
30873;BME280;17579;42.690;2.586;2024-03-07T12:42:51;96703.94;;;12.15;58.49
30873;BME280;17579;42.690;2.586;2024-03-07T12:45:30;96693.69;;;12.20;58.71
30873;BME280;17579;42.690;2.586;2024-03-07T12:48:09;96687.50;;;12.36;58.81
30873;BME280;17579;42.690;2.586;2024-03-07T12:50:40;96690.72;;;12.62;57.82
30873;BME280;17579;42.690;2.586;2024-03-07T12:53:14;96692.16;;;12.81;58.06
30873;BME280;17579;42.690;2.586;2024-03-07T12:55:45;96678.03;;;13.12;57.89
30873;BME280;17579;42.690;2.586;2024-03-07T12:58:10;96676.19;;;13.44;57.01
30873;BME280;17579;42.690;2.586;2024-03-07T13:00:45;96665.47;;;13.76;56.63
30873;BME280;17579;42.690;2.586;2024-03-07T13:03:11;96658.81;;;13.95;56.05
30873;BME280;17579;42.690;2.586;2024-03-07T13:05:42;96651.13;;;14.00;55.46
30873;BME280;17579;42.690;2.586;2024-03-07T13:08:25;96659.16;;;13.77;55.73
30873;BME280;17579;42.690;2.586;2024-03-07T13:10:59;96657.78;;;13.81;55.38
30873;BME280;17579;42.690;2.586;2024-03-07T13:14:07;96658.16;;;13.78;56.09
30873;BME280;17579;42.690;2.586;2024-03-07T13:16:20;96637.72;;;13.93;55.91
30873;BME280;17579;42.690;2.586;2024-03-07T13:21:48;96639.59;;;14.37;55.24
30873;BME280;17579;42.690;2.586;2024-03-07T13:24:14;96637.00;;;14.29;54.61
30873;BME280;17579;42.690;2.586;2024-03-07T13:26:43;96639.75;;;14.06;54.99
30873;BME280;17579;42.690;2.586;2024-03-07T13:29:11;96629.22;;;13.98;54.47
30873;BME280;17579;42.690;2.586;2024-03-07T13:31:48;96624.09;;;14.11;55.01
30873;BME280;17579;42.690;2.586;2024-03-07T13:34:14;96614.00;;;14.51;54.51
30873;BME280;17579;42.690;2.586;2024-03-07T13:36:50;96605.13;;;15.17;53.55
30873;BME280;17579;42.690;2.586;2024-03-07T13:39:25;96603.94;;;15.48;52.05
30873;BME280;17579;42.690;2.586;2024-03-07T13:41:50;96588.88;;;15.84;51.79
30873;BME280;17579;42.690;2.586;2024-03-07T13:44:20;96587.59;;;16.50;51.30
30873;BME280;17579;42.690;2.586;2024-03-07T13:46:47;96585.16;;;17.10;49.32
30873;BME280;17579;42.690;2.586;2024-03-07T13:49:18;96584.34;;;17.36;48.14
30873;BME280;17579;42.690;2.586;2024-03-07T13:51:53;96568.25;;;16.96;48.13
30873;BME280;17579;42.690;2.586;2024-03-07T13:54:25;96569.22;;;16.82;48.24
30873;BME280;17579;42.690;2.586;2024-03-07T14:06:02;96546.44;;;16.24;48.26
30873;BME280;17579;42.690;2.586;2024-03-07T14:09:04;96543.66;;;15.75;49.43
30873;BME280;17579;42.690;2.586;2024-03-07T14:32:24;96509.50;;;17.29;46.79
30873;BME280;17579;42.690;2.586;2024-03-07T14:35:14;96504.38;;;17.35;46.96
30873;BME280;17579;42.690;2.586;2024-03-07T14:37:52;96497.16;;;17.15;46.86
30873;BME280;17579;42.690;2.586;2024-03-07T14:40:21;96501.25;;;16.91;46.66
30873;BME280;17579;42.690;2.586;2024-03-07T14:43:01;96489.66;;;16.43;47.35
30873;BME280;17579;42.690;2.586;2024-03-07T14:45:40;96485.63;;;16.13;47.82
30873;BME280;17579;42.690;2.586;2024-03-07T14:48:10;96487.06;;;16.08;47.93
30873;BME280;17579;42.690;2.586;2024-03-07T14:50:39;96477.50;;;15.86;48.56
30873;BME280;17579;42.690;2.586;2024-03-07T14:53:09;96472.03;;;15.66;48.78
30873;BME280;17579;42.690;2.586;2024-03-07T14:55:46;96467.69;;;15.58;49.08
30873;BME280;17579;42.690;2.586;2024-03-07T14:58:12;96470.56;;;15.56;49.67
30873;BME280;17579;42.690;2.586;2024-03-07T15:00:42;96458.25;;;15.55;49.69
30873;BME280;17579;42.690;2.586;2024-03-07T15:03:14;96454.72;;;15.48;49.58
30873;BME280;17579;42.690;2.586;2024-03-07T15:05:44;96449.78;;;15.45;50.14
30873;BME280;17579;42.690;2.586;2024-03-07T15:08:18;96452.59;;;15.37;50.22
30873;BME280;17579;42.690;2.586;2024-03-07T15:10:56;96446.38;;;15.23;50.27
30873;BME280;17579;42.690;2.586;2024-03-07T15:13:43;96450.81;;;15.16;50.78
30873;BME280;17579;42.690;2.586;2024-03-07T15:16:11;96444.22;;;15.12;51.03
30873;BME280;17579;42.690;2.586;2024-03-07T15:18:40;96440.31;;;15.07;50.95
30873;BME280;17579;42.690;2.586;2024-03-07T15:21:17;96432.84;;;14.96;51.27
30873;BME280;17579;42.690;2.586;2024-03-07T15:23:46;96425.09;;;15.01;51.21
30873;BME280;17579;42.690;2.586;2024-03-07T15:26:21;96422.25;;;15.03;51.24
30873;BME280;17579;42.690;2.586;2024-03-07T15:28:56;96417.31;;;15.00;51.53
30873;BME280;17579;42.690;2.586;2024-03-07T15:31:23;96424.28;;;15.01;51.23
30873;BME280;17579;42.690;2.586;2024-03-07T15:33:54;96414.19;;;14.96;51.84
30873;BME280;17579;42.690;2.586;2024-03-07T15:36:31;96410.13;;;15.00;51.72
30873;BME280;17579;42.690;2.586;2024-03-07T15:38:57;96416.47;;;14.99;51.82
30873;BME280;17579;42.690;2.586;2024-03-07T15:41:36;96407.69;;;14.99;52.35
30873;BME280;17579;42.690;2.586;2024-03-07T15:44:01;96403.34;;;14.98;52.07
30873;BME280;17579;42.690;2.586;2024-03-07T15:46:40;96393.88;;;14.88;52.16
30873;BME280;17579;42.690;2.586;2024-03-07T15:49:06;96394.78;;;15.02;52.39
30873;BME280;17579;42.690;2.586;2024-03-07T15:51:34;96391.19;;;15.17;52.03
30873;BME280;17579;42.690;2.586;2024-03-07T15:54:00;96395.78;;;15.30;51.98
30873;BME280;17579;42.690;2.586;2024-03-07T15:56:30;96391.91;;;15.32;51.39
30873;BME280;17579;42.690;2.586;2024-03-07T15:58:55;96382.66;;;15.28;51.35
30873;BME280;17579;42.690;2.586;2024-03-07T16:01:30;96377.97;;;15.30;51.59
30873;BME280;17579;42.690;2.586;2024-03-07T16:04:00;96380.22;;;15.33;51.46
30873;BME280;17579;42.690;2.586;2024-03-07T16:06:26;96366.91;;;15.33;51.21
30873;BME280;17579;42.690;2.586;2024-03-07T16:09:00;96357.66;;;15.29;51.71
30873;BME280;17579;42.690;2.586;2024-03-07T16:11:46;96360.78;;;15.39;51.24
30873;BME280;17579;42.690;2.586;2024-03-07T16:14:17;96361.78;;;15.38;51.58
30873;BME280;17579;42.690;2.586;2024-03-07T16:16:43;96360.78;;;15.39;51.14
30873;BME280;17579;42.690;2.586;2024-03-07T16:19:08;96355.25;;;15.34;51.26
30873;BME280;17579;42.690;2.586;2024-03-07T16:21:36;96343.28;;;15.23;51.15
30873;BME280;17579;42.690;2.586;2024-03-07T16:24:12;96350.22;;;15.18;51.40
30873;BME280;17579;42.690;2.586;2024-03-07T16:26:40;96344.09;;;15.24;51.36
30873;BME280;17579;42.690;2.586;2024-03-07T16:29:05;96344.31;;;15.22;51.04
30873;BME280;17579;42.690;2.586;2024-03-07T16:31:33;96339.97;;;15.15;51.20
30873;BME280;17579;42.690;2.586;2024-03-07T16:34:02;96337.44;;;15.06;51.20
30873;BME280;17579;42.690;2.586;2024-03-07T16:36:30;96336.41;;;15.01;51.16
30873;BME280;17579;42.690;2.586;2024-03-07T16:39:08;96335.88;;;14.84;51.21
30873;BME280;17579;42.690;2.586;2024-03-07T16:41:37;96337.47;;;14.78;51.31
30873;BME280;17579;42.690;2.586;2024-03-07T16:44:03;96336.19;;;14.67;51.27
30873;BME280;17579;42.690;2.586;2024-03-07T16:46:34;96333.75;;;14.51;51.63
30873;BME280;17579;42.690;2.586;2024-03-07T16:49:00;96336.19;;;14.46;51.77
30873;BME280;17579;42.690;2.586;2024-03-07T16:51:39;96332.00;;;14.36;51.86
30873;BME280;17579;42.690;2.586;2024-03-07T16:54:14;96333.41;;;14.32;51.88
30873;BME280;17579;42.690;2.586;2024-03-07T16:56:42;96340.69;;;14.24;51.57
30873;BME280;17579;42.690;2.586;2024-03-07T16:59:12;96333.25;;;14.12;52.01
30873;BME280;17579;42.690;2.586;2024-03-07T17:01:51;96336.00;;;14.04;52.22
30873;BME280;17579;42.690;2.586;2024-03-07T17:04:17;96330.69;;;14.04;52.00
30873;BME280;17579;42.690;2.586;2024-03-07T17:06:43;96330.03;;;14.02;52.07
30873;BME280;17579;42.690;2.586;2024-03-07T17:09:11;96322.44;;;13.99;52.15
30873;BME280;17579;42.690;2.586;2024-03-07T17:11:53;96327.34;;;13.95;52.33
30873;BME280;17579;42.690;2.586;2024-03-07T17:14:33;96325.06;;;13.92;52.11
30873;BME280;17579;42.690;2.586;2024-03-07T17:17:06;96320.88;;;13.83;52.13
30873;BME280;17579;42.690;2.586;2024-03-07T17:19:35;96320.25;;;13.81;52.15
30873;BME280;17579;42.690;2.586;2024-03-07T17:22:12;96321.88;;;13.82;52.26
30873;BME280;17579;42.690;2.586;2024-03-07T17:24:38;96318.31;;;13.75;52.17
30873;BME280;17579;42.690;2.586;2024-03-07T17:27:05;96317.88;;;13.71;52.42
30873;BME280;17579;42.690;2.586;2024-03-07T17:29:38;96319.06;;;13.68;52.18
30873;BME280;17579;42.690;2.586;2024-03-07T17:32:07;96325.16;;;13.62;52.20
30873;BME280;17579;42.690;2.586;2024-03-07T17:34:40;96325.44;;;13.52;52.42
30873;BME280;17579;42.690;2.586;2024-03-07T17:37:17;96333.06;;;13.41;52.52
30873;BME280;17579;42.690;2.586;2024-03-07T17:39:45;96329.00;;;13.30;52.61
30873;BME280;17579;42.690;2.586;2024-03-07T17:42:18;96322.41;;;13.26;52.66
30873;BME280;17579;42.690;2.586;2024-03-07T17:44:46;96326.53;;;13.28;52.90
30873;BME280;17579;42.690;2.586;2024-03-07T17:47:33;96323.06;;;13.28;53.07
30873;BME280;17579;42.690;2.586;2024-03-07T17:50:07;96319.69;;;13.19;52.97
30873;BME280;17579;42.690;2.586;2024-03-07T17:52:43;96322.72;;;13.16;52.91
30873;BME280;17579;42.690;2.586;2024-03-07T17:55:11;96318.59;;;13.13;53.15
30873;BME280;17579;42.690;2.586;2024-03-07T17:57:40;96319.78;;;13.11;52.86
30873;BME280;17579;42.690;2.586;2024-03-07T18:00:16;96308.81;;;12.99;52.69
30873;BME280;17579;42.690;2.586;2024-03-07T18:03:04;96312.47;;;12.98;52.36
30873;BME280;17579;42.690;2.586;2024-03-07T18:05:34;96309.38;;;12.94;52.45
30873;BME280;17579;42.690;2.586;2024-03-07T18:08:06;96312.91;;;12.87;52.00
30873;BME280;17579;42.690;2.586;2024-03-07T18:10:43;96312.00;;;12.79;51.70
30873;BME280;17579;42.690;2.586;2024-03-07T18:13:16;96307.44;;;12.73;51.82
30873;BME280;17579;42.690;2.586;2024-03-07T18:15:44;96302.50;;;12.70;52.00
30873;BME280;17579;42.690;2.586;2024-03-07T18:18:33;96309.91;;;12.60;51.90
30873;BME280;17579;42.690;2.586;2024-03-07T18:20:58;96307.41;;;12.58;51.61
30873;BME280;17579;42.690;2.586;2024-03-07T18:23:35;96307.50;;;12.50;51.72
30873;BME280;17579;42.690;2.586;2024-03-07T18:26:03;96309.41;;;12.41;51.79
30873;BME280;17579;42.690;2.586;2024-03-07T18:28:51;96311.31;;;12.33;52.05
30873;BME280;17579;42.690;2.586;2024-03-07T18:31:20;96301.16;;;12.36;51.46
30873;BME280;17579;42.690;2.586;2024-03-07T18:34:31;96301.41;;;12.26;51.80
30873;BME280;17579;42.690;2.586;2024-03-07T18:37:04;96290.91;;;12.33;51.78
30873;BME280;17579;42.690;2.586;2024-03-07T18:46:38;96278.13;;;11.99;51.31
30873;BME280;17579;42.690;2.586;2024-03-07T19:00:11;96293.50;;;11.72;51.75
30873;BME280;17579;42.690;2.586;2024-03-07T19:03:01;96294.03;;;11.67;52.11
30873;BME280;17579;42.690;2.586;2024-03-07T19:09:10;96289.50;;;11.53;52.68
30873;BME280;17579;42.690;2.586;2024-03-07T19:11:50;96291.81;;;11.48;53.18
30873;BME280;17579;42.690;2.586;2024-03-07T19:14:27;96290.56;;;11.43;53.24
30873;BME280;17579;42.690;2.586;2024-03-07T19:20:32;96280.16;;;11.34;53.98
30873;BME280;17579;42.690;2.586;2024-03-07T19:23:00;96281.88;;;11.26;54.32
30873;BME280;17579;42.690;2.586;2024-03-07T19:25:28;96279.41;;;11.25;54.82
30873;BME280;17579;42.690;2.586;2024-03-07T19:27:57;96281.53;;;11.21;55.06
30873;BME280;17579;42.690;2.586;2024-03-07T19:30:30;96283.56;;;11.19;55.72
30873;BME280;17579;42.690;2.586;2024-03-07T19:39:59;96283.94;;;11.08;56.17
30873;BME280;17579;42.690;2.586;2024-03-07T19:43:12;96271.69;;;11.07;56.08
30873;BME280;17579;42.690;2.586;2024-03-07T19:45:59;96268.06;;;11.08;56.29
30873;BME280;17579;42.690;2.586;2024-03-07T19:48:26;96279.09;;;11.12;56.88
30873;BME280;17579;42.690;2.586;2024-03-07T19:51:05;96269.03;;;11.07;56.66
30873;BME280;17579;42.690;2.586;2024-03-07T19:53:37;96280.94;;;11.11;56.81
30873;BME280;17579;42.690;2.586;2024-03-07T19:56:18;96277.47;;;11.11;56.82
30873;BME280;17579;42.690;2.586;2024-03-07T19:58:56;96285.19;;;11.20;56.63
30873;BME280;17579;42.690;2.586;2024-03-07T20:01:24;96283.38;;;11.21;56.80
30873;BME280;17579;42.690;2.586;2024-03-07T20:03:50;96274.41;;;11.22;56.52
30873;BME280;17579;42.690;2.586;2024-03-07T20:06:16;96268.97;;;11.23;56.47
30873;BME280;17579;42.690;2.586;2024-03-07T20:08:44;96271.94;;;11.20;56.62
30873;BME280;17579;42.690;2.586;2024-03-07T20:11:16;96277.59;;;11.17;56.36
30873;BME280;17579;42.690;2.586;2024-03-07T20:13:44;96270.16;;;11.21;56.70
30873;BME280;17579;42.690;2.586;2024-03-07T20:16:12;96263.53;;;11.17;56.82
30873;BME280;17579;42.690;2.586;2024-03-07T20:18:41;96256.41;;;11.17;56.77
30873;BME280;17579;42.690;2.586;2024-03-07T20:21:08;96251.13;;;11.17;56.79
30873;BME280;17579;42.690;2.586;2024-03-07T20:23:34;96250.84;;;11.12;57.25
30873;BME280;17579;42.690;2.586;2024-03-07T20:26:03;96264.38;;;11.09;57.28
30873;BME280;17579;42.690;2.586;2024-03-07T20:28:37;96266.53;;;11.14;57.49
30873;BME280;17579;42.690;2.586;2024-03-07T20:31:03;96260.91;;;11.17;57.50
30873;BME280;17579;42.690;2.586;2024-03-07T20:33:28;96262.03;;;11.22;57.28
30873;BME280;17579;42.690;2.586;2024-03-07T20:36:03;96261.69;;;11.25;57.20
30873;BME280;17579;42.690;2.586;2024-03-07T20:38:31;96262.81;;;11.31;57.36
30873;BME280;17579;42.690;2.586;2024-03-07T20:40:57;96252.56;;;11.28;56.99
30873;BME280;17579;42.690;2.586;2024-03-07T20:43:25;96260.03;;;11.24;56.90
30873;BME280;17579;42.690;2.586;2024-03-07T20:46:01;96278.03;;;11.29;57.19
30873;BME280;17579;42.690;2.586;2024-03-07T20:48:28;96281.34;;;11.31;56.75
30873;BME280;17579;42.690;2.586;2024-03-07T20:50:56;96271.75;;;11.30;56.75
30873;BME280;17579;42.690;2.586;2024-03-07T20:53:22;96264.78;;;11.29;57.10
30873;BME280;17579;42.690;2.586;2024-03-07T20:55:48;96256.84;;;11.29;56.60
30873;BME280;17579;42.690;2.586;2024-03-07T20:58:22;96265.31;;;11.24;56.70
30873;BME280;17579;42.690;2.586;2024-03-07T21:00:51;96266.16;;;11.25;56.80
30873;BME280;17579;42.690;2.586;2024-03-07T21:03:18;96278.53;;;11.24;56.63
30873;BME280;17579;42.690;2.586;2024-03-07T21:08:41;96276.75;;;11.25;56.29
30873;BME280;17579;42.690;2.586;2024-03-07T21:11:10;96272.72;;;11.29;55.83
30873;BME280;17579;42.690;2.586;2024-03-07T21:13:38;96270.91;;;11.30;55.94
30873;BME280;17579;42.690;2.586;2024-03-07T21:16:14;96272.25;;;11.25;55.38
30873;BME280;17579;42.690;2.586;2024-03-07T21:18:46;96280.72;;;11.21;55.59
30873;BME280;17579;42.690;2.586;2024-03-07T21:21:14;96282.72;;;11.19;55.41
30873;BME280;17579;42.690;2.586;2024-03-07T21:23:40;96289.84;;;11.18;55.08
30873;BME280;17579;42.690;2.586;2024-03-07T21:26:08;96286.38;;;11.18;54.75
30873;BME280;17579;42.690;2.586;2024-03-07T21:28:43;96285.69;;;11.24;54.26
30873;BME280;17579;42.690;2.586;2024-03-07T21:31:09;96276.41;;;11.28;54.11
30873;BME280;17579;42.690;2.586;2024-03-07T21:33:36;96280.53;;;11.31;53.76
30873;BME280;17579;42.690;2.586;2024-03-07T21:36:05;96284.16;;;11.30;53.56
30873;BME280;17579;42.690;2.586;2024-03-07T21:38:35;96291.75;;;11.33;53.51
30873;BME280;17579;42.690;2.586;2024-03-07T21:41:34;96295.91;;;11.27;53.40
30873;BME280;17579;42.690;2.586;2024-03-07T21:44:00;96285.66;;;11.32;52.47
30873;BME280;17579;42.690;2.586;2024-03-07T21:46:28;96289.63;;;11.28;53.04
30873;BME280;17579;42.690;2.586;2024-03-07T21:48:56;96280.16;;;11.34;52.47
30873;BME280;17579;42.690;2.586;2024-03-07T21:54:14;96257.69;;;11.30;52.17
30873;BME280;17579;42.690;2.586;2024-03-07T21:56:43;96266.16;;;11.25;51.80
30873;BME280;17579;42.690;2.586;2024-03-07T21:59:23;96271.63;;;11.23;52.12
30873;BME280;17579;42.690;2.586;2024-03-07T22:01:52;96276.75;;;11.25;51.68
30873;BME280;17579;42.690;2.586;2024-03-07T22:04:18;96268.97;;;11.23;51.83
30873;BME280;17579;42.690;2.586;2024-03-07T22:06:52;96270.78;;;11.23;51.93
30873;BME280;17579;42.690;2.586;2024-03-07T22:09:26;96273.13;;;11.18;52.18
30873;BME280;17579;42.690;2.586;2024-03-07T22:11:57;96266.66;;;11.20;52.22
30873;BME280;17579;42.690;2.586;2024-03-07T22:14:24;96267.16;;;11.24;51.53
30873;BME280;17579;42.690;2.586;2024-03-07T22:16:55;96256.91;;;11.21;51.75
30873;BME280;17579;42.690;2.586;2024-03-07T22:19:24;96260.53;;;11.20;51.60
30873;BME280;17579;42.690;2.586;2024-03-07T22:21:50;96258.53;;;11.22;51.01
30873;BME280;17579;42.690;2.586;2024-03-07T22:24:26;96252.59;;;11.20;50.87
30873;BME280;17579;42.690;2.586;2024-03-07T22:27:01;96255.59;;;11.17;51.19
30873;BME280;17579;42.690;2.586;2024-03-07T22:29:36;96259.38;;;11.22;50.65
30873;BME280;17579;42.690;2.586;2024-03-07T22:32:19;96260.19;;;11.23;50.28
30873;BME280;17579;42.690;2.586;2024-03-07T22:35:11;96250.13;;;11.18;50.58
30873;BME280;17579;42.690;2.586;2024-03-07T22:37:45;96254.94;;;11.15;50.79
30873;BME280;17579;42.690;2.586;2024-03-07T22:40:16;96248.47;;;11.17;50.60
30873;BME280;17579;42.690;2.586;2024-03-07T22:42:44;96254.13;;;11.14;50.54
30873;BME280;17579;42.690;2.586;2024-03-07T22:45:10;96253.94;;;11.16;50.71
30873;BME280;17579;42.690;2.586;2024-03-07T22:47:38;96246.84;;;11.16;50.81
30873;BME280;17579;42.690;2.586;2024-03-07T22:50:14;96242.06;;;11.12;50.64
30873;BME280;17579;42.690;2.586;2024-03-07T22:52:45;96250.50;;;11.15;50.44
30873;BME280;17579;42.690;2.586;2024-03-07T22:55:17;96255.09;;;11.13;50.32
30873;BME280;17579;42.690;2.586;2024-03-07T22:57:43;96249.19;;;11.11;50.36
30873;BME280;17579;42.690;2.586;2024-03-07T23:00:17;96246.53;;;11.11;50.56
30873;BME280;17579;42.690;2.586;2024-03-07T23:02:57;96243.06;;;11.11;50.11
30873;BME280;17579;42.690;2.586;2024-03-07T23:05:40;96242.06;;;11.12;49.96
30873;BME280;17579;42.690;2.586;2024-03-07T23:08:06;96231.81;;;11.08;50.10
30873;BME280;17579;42.690;2.586;2024-03-07T23:10:32;96235.28;;;11.09;49.71
30873;BME280;17579;42.690;2.586;2024-03-07T23:13:18;96229.19;;;11.08;49.38
30873;BME280;17579;42.690;2.586;2024-03-07T23:15:52;96233.31;;;11.11;48.36